Time;durP1;ratioP1;P1;durP2;ratioP2;P2;SDS_P1;SDS_P2;PMS_P1;PMS_P2;Temp;Humidity;BMP_temperature;BMP_pressure;BME280_temperature;BME280_humidity;BME280_pressure;Samples;Min_cycle;Max_cycle;Signal;HPM_P1;HPM_P2
2024/03/19 00:01:07;;;;;;;;;;;;;;;22.89;50.17;94321.91;5008558;28;9110;-62
2024/03/19 00:03:50;;;;;;;;;;;;;;;22.93;50.81;94321.66;4995106;28;7035;-62
2024/03/19 00:06:35;;;;;;;;;;;;;;;22.90;50.13;94315.16;4986671;28;9205;-59
2024/03/19 00:09:40;;;;;;;;;;;;;;;22.90;50.03;94317.91;5003136;28;8726;-59
2024/03/19 00:12:32;;;;;;;;;;;;;;;22.90;50.17;94308.94;5008768;28;7216;-59
2024/03/19 00:15:28;;;;;;;;;;;;;;;22.88;50.18;94309.41;5002381;28;9121;-59
2024/03/19 00:18:32;;;;;;;;;;;;;;;22.90;50.07;94314.44;4967200;28;9522;-61
2024/03/19 00:20:59;;;;;;;;;;;;;;;22.87;49.84;94309.91;4993746;28;9476;-60
2024/03/19 00:23:26;;;;;;;;;;;;;;;22.87;50.17;94307.94;4998177;28;9448;-61
2024/03/19 00:26:11;;;;;;;;;;;;;;;22.88;50.11;94309.41;5014334;28;8739;-60
2024/03/19 00:28:41;;;;;;;;;;;;;;;22.87;50.17;94310.69;5008526;28;8881;-60
2024/03/19 00:31:10;;;;;;;;;;;;;;;22.87;49.92;94304.44;4994356;28;9063;-61
2024/03/19 00:33:36;;;;;;;;;;;;;;;22.87;50.37;94302.44;5009509;28;9498;-61
2024/03/19 00:36:10;;;;;;;;;;;;;;;22.87;50.13;94296.22;4991705;28;9463;-60
2024/03/19 00:38:36;;;;;;;;;;;;;;;22.87;50.35;94296.97;4992299;28;9576;-61
2024/03/19 00:41:04;;;;;;;;;;;;;;;22.88;50.06;94297.72;4989502;28;9448;-61
2024/03/19 00:43:41;;;;;;;;;;;;;;;22.88;49.97;94292.25;4997401;28;7695;-61
2024/03/19 00:46:55;;;;;;;;;;;;;;;22.87;50.21;94283.25;4989327;28;8739;-61
2024/03/19 00:49:35;;;;;;;;;;;;;;;22.87;50.06;94283.25;4942925;28;8745;-61
2024/03/19 00:52:03;;;;;;;;;;;;;;;22.86;49.90;94283.75;4932331;28;9386;-60
2024/03/19 00:54:47;;;;;;;;;;;;;;;22.85;50.00;94283.00;4973608;28;9150;-61
2024/03/19 00:57:14;;;;;;;;;;;;;;;22.85;50.02;94274.78;4996646;28;9532;-61
2024/03/19 00:59:58;;;;;;;;;;;;;;;22.87;49.94;94286.00;4996607;28;8938;-61
2024/03/19 01:02:44;;;;;;;;;;;;;;;22.86;49.93;94281.75;5013430;28;8668;-61
2024/03/19 01:05:30;;;;;;;;;;;;;;;22.85;49.70;94279.50;5009785;28;9471;-61
2024/03/19 01:08:07;;;;;;;;;;;;;;;22.86;50.00;94284.50;5007505;28;9138;-61
2024/03/19 01:11:28;;;;;;;;;;;;;;;22.86;49.86;94281.75;4997034;28;9054;-61
2024/03/19 01:14:32;;;;;;;;;;;;;;;22.86;49.78;94283.75;4932197;29;9043;-61
2024/03/19 01:17:12;;;;;;;;;;;;;;;22.82;49.90;94270.28;4876288;29;9191;-61
2024/03/19 01:19:51;;;;;;;;;;;;;;;22.84;50.08;94264.28;4897189;29;8959;-61
2024/03/19 01:22:51;;;;;;;;;;;;;;;22.85;49.72;94271.28;4879365;29;8220;-61
2024/03/19 01:25:36;;;;;;;;;;;;;;;22.85;49.80;94269.28;4890987;29;7865;-61
2024/03/19 01:28:13;;;;;;;;;;;;;;;22.85;49.50;94268.53;4894033;29;8784;-61
2024/03/19 01:30:49;;;;;;;;;;;;;;;22.84;50.08;94264.28;4895395;29;7258;-61
2024/03/19 01:33:34;;;;;;;;;;;;;;;22.87;49.68;94263.31;4894429;29;9056;-61
2024/03/19 01:36:02;;;;;;;;;;;;;;;22.88;49.41;94265.53;4891316;29;9359;-65
2024/03/19 01:38:28;;;;;;;;;;;;;;;22.78;49.74;94245.09;4894446;29;9667;-65
2024/03/19 01:40:54;;;;;;;;;;;;;;;22.84;49.81;94254.06;4890116;29;7041;-64
2024/03/19 01:43:22;;;;;;;;;;;;;;;22.80;49.69;94250.81;4897431;29;9703;-64
2024/03/19 01:46:06;;;;;;;;;;;;;;;22.83;49.85;94257.31;4870409;29;7292;-64
2024/03/19 01:48:54;;;;;;;;;;;;;;;22.84;49.78;94254.06;4930868;28;7123;-65
2024/03/19 01:51:54;;;;;;;;;;;;;;;22.85;49.27;94261.06;5012353;28;7331;-65
2024/03/19 01:54:40;;;;;;;;;;;;;;;22.75;49.55;94239.84;5012774;28;7568;-64
2024/03/19 01:57:13;;;;;;;;;;;;;;;22.80;49.53;94247.31;5030225;28;7065;-64
2024/03/19 02:00:09;;;;;;;;;;;;;;;22.83;49.39;94249.09;5022262;28;7305;-64
2024/03/19 02:03:15;;;;;;;;;;;;;;;22.81;49.30;94246.84;4989824;28;9225;-66
2024/03/19 02:05:44;;;;;;;;;;;;;;;22.81;49.82;94249.59;4972491;28;9378;-64
2024/03/19 02:08:29;;;;;;;;;;;;;;;22.83;49.65;94238.88;4975882;28;9491;-64
2024/03/19 02:11:10;;;;;;;;;;;;;;;22.75;49.39;94235.09;4992592;28;7001;-64
2024/03/19 02:13:50;;;;;;;;;;;;;;;22.75;49.68;94229.63;4992687;28;7255;-64
2024/03/19 02:16:37;;;;;;;;;;;;;;;22.76;49.71;94228.38;4962551;28;7018;-64
2024/03/19 02:19:40;;;;;;;;;;;;;;;22.80;49.43;94239.84;4992817;28;9131;-64
2024/03/19 02:22:20;;;;;;;;;;;;;;;22.79;49.96;94240.38;4978761;28;7039;-65
2024/03/19 02:25:20;;;;;;;;;;;;;;;22.80;49.38;94244.59;4992420;28;7020;-64
2024/03/19 02:28:06;;;;;;;;;;;;;;;22.78;49.76;94236.88;4985949;28;7253;-64
2024/03/19 02:30:34;;;;;;;;;;;;;;;22.79;49.50;94232.88;4978317;28;7475;-65
2024/03/19 02:33:16;;;;;;;;;;;;;;;22.78;49.78;94231.38;4991774;28;7018;-66
2024/03/19 02:35:56;;;;;;;;;;;;;;;22.73;49.48;94228.66;4978857;28;8753;-65
2024/03/19 02:38:24;;;;;;;;;;;;;;;22.72;49.81;94219.66;4985335;28;10352;-65
2024/03/19 02:40:53;;;;;;;;;;;;;;;22.74;49.55;94222.66;4972817;28;7029;-65
2024/03/19 02:43:19;;;;;;;;;;;;;;;22.74;49.57;94225.41;4984291;28;7218;-65
2024/03/19 02:45:49;;;;;;;;;;;;;;;22.75;49.53;94232.34;4987537;28;9454;-62
2024/03/19 02:48:24;;;;;;;;;;;;;;;22.72;49.76;94236.09;4992347;28;8771;-65
2024/03/19 02:51:35;;;;;;;;;;;;;;;22.77;49.27;94242.84;4987691;28;7779;-65
2024/03/19 02:54:21;;;;;;;;;;;;;;;22.76;49.38;94247.56;4969131;28;7276;-65
2024/03/19 02:57:04;;;;;;;;;;;;;;;22.75;49.42;94243.31;4984866;28;8889;-65
2024/03/19 02:59:31;;;;;;;;;;;;;;;22.69;49.74;94237.09;4995332;28;9227;-65
2024/03/19 03:02:10;;;;;;;;;;;;;;;22.75;49.62;94248.81;5003068;28;7095;-65
2024/03/19 03:04:47;;;;;;;;;;;;;;;22.70;49.49;94238.59;5053750;28;7014;-66
2024/03/19 03:07:21;;;;;;;;;;;;;;;22.72;49.05;94243.59;5050085;28;7114;-65
2024/03/19 03:09:50;;;;;;;;;;;;;;;22.75;49.47;94248.09;5053473;28;7114;-65
2024/03/19 03:12:17;;;;;;;;;;;;;;;22.73;49.57;94245.81;5052920;28;7225;-66
2024/03/19 03:14:42;;;;;;;;;;;;;;;22.68;49.57;94238.34;5052417;28;7109;-65
2024/03/19 03:17:09;;;;;;;;;;;;;;;22.76;49.58;94253.06;5047229;28;7086;-65
2024/03/19 03:19:35;;;;;;;;;;;;;;;22.76;49.45;94260.53;5055887;28;7240;-65
2024/03/19 03:22:03;;;;;;;;;;;;;;;22.69;49.38;94250.78;5054695;28;7257;-65
2024/03/19 03:24:34;;;;;;;;;;;;;;;22.71;49.34;94248.31;5048823;28;7692;-65
2024/03/19 03:27:00;;;;;;;;;;;;;;;22.75;49.39;94256.31;5050086;28;9723;-65
2024/03/19 03:29:38;;;;;;;;;;;;;;;22.68;49.28;94249.31;5050608;28;7017;-65
2024/03/19 03:32:09;;;;;;;;;;;;;;;22.72;49.34;94251.81;5032259;28;7275;-65
2024/03/19 03:34:44;;;;;;;;;;;;;;;22.74;49.39;94258.28;5043716;28;7789;-65
2024/03/19 03:37:46;;;;;;;;;;;;;;;22.74;49.56;94261.03;5052396;28;7437;-65
2024/03/19 03:40:18;;;;;;;;;;;;;;;22.67;49.42;94261.50;5011258;28;9022;-65
2024/03/19 03:42:48;;;;;;;;;;;;;;;22.71;49.32;94259.28;5027557;28;7061;-65
2024/03/19 03:45:21;;;;;;;;;;;;;;;22.73;49.37;94258.81;5018486;28;6944;-65
2024/03/19 03:48:04;;;;;;;;;;;;;;;22.75;49.08;94265.25;5033503;28;7399;-65
2024/03/19 03:50:40;;;;;;;;;;;;;;;22.75;49.23;94264.53;5017612;28;8236;-65
2024/03/19 03:53:08;;;;;;;;;;;;;;;22.72;49.00;94265.50;5017837;28;7207;-65
2024/03/19 03:55:50;;;;;;;;;;;;;;;22.70;49.13;94265.25;5034370;28;8209;-65
2024/03/19 03:58:35;;;;;;;;;;;;;;;22.73;49.07;94270.50;5006544;28;9350;-59
2024/03/19 04:01:18;;;;;;;;;;;;;;;22.71;49.08;94272.22;5022634;28;7450;-59
2024/03/19 04:03:44;;;;;;;;;;;;;;;22.71;49.26;94266.75;5033724;28;7033;-59
2024/03/19 04:06:36;;;;;;;;;;;;;;;22.71;49.05;94270.25;5017610;28;7074;-59
2024/03/19 04:09:04;;;;;;;;;;;;;;;22.69;49.09;94270.00;5033996;28;7201;-59
2024/03/19 04:11:44;;;;;;;;;;;;;;;22.68;49.25;94263.03;5017140;28;7062;-60
2024/03/19 04:14:26;;;;;;;;;;;;;;;22.71;49.07;94262.00;5043772;28;7016;-59
2024/03/19 04:17:05;;;;;;;;;;;;;;;22.64;49.17;94262.50;5062859;28;7849;-59
2024/03/19 04:19:47;;;;;;;;;;;;;;;22.71;49.32;94267.50;5055590;28;6902;-59
2024/03/19 04:22:18;;;;;;;;;;;;;;;22.64;49.18;94257.00;5048396;28;7251;-59
2024/03/19 04:25:43;;;;;;;;;;;;;;;22.69;48.93;94264.50;5054923;28;7010;-59
2024/03/19 04:28:11;;;;;;;;;;;;;;;22.67;49.06;94269.72;5054778;28;7063;-59
2024/03/19 04:30:36;;;;;;;;;;;;;;;22.59;49.23;94257.75;5056083;28;7275;-59
2024/03/19 04:33:36;;;;;;;;;;;;;;;22.67;49.08;94268.97;5050911;28;7036;-59
2024/03/19 04:36:29;;;;;;;;;;;;;;;22.67;49.13;94261.50;5035552;28;7343;-60
2024/03/19 04:39:10;;;;;;;;;;;;;;;22.60;49.22;94251.03;5059960;28;7128;-59
2024/03/19 04:41:42;;;;;;;;;;;;;;;22.58;49.26;94258.97;5035394;28;8576;-60
2024/03/19 04:44:09;;;;;;;;;;;;;;;22.59;49.17;94254.22;5057051;28;7016;-60
2024/03/19 04:46:38;;;;;;;;;;;;;;;22.63;49.48;94261.00;5055812;28;8977;-60
2024/03/19 04:49:15;;;;;;;;;;;;;;;22.63;49.25;94257.50;5053634;28;7044;-59
2024/03/19 04:52:01;;;;;;;;;;;;;;;22.60;49.56;94261.97;5058174;28;7411;-60
2024/03/19 04:54:37;;;;;;;;;;;;;;;22.58;49.28;94256.22;5069079;28;7422;-60
2024/03/19 04:57:34;;;;;;;;;;;;;;;22.61;49.37;94258.00;5037601;28;7089;-59
2024/03/19 05:00:02;;;;;;;;;;;;;;;22.55;48.92;94246.25;5051198;28;7285;-59
2024/03/19 05:03:04;;;;;;;;;;;;;;;22.57;49.13;94249.25;5038277;28;7158;-59
2024/03/19 05:05:49;;;;;;;;;;;;;;;22.58;49.14;94256.22;5054329;28;7331;-59
2024/03/19 05:09:02;;;;;;;;;;;;;;;22.59;49.52;94248.75;5053954;28;7051;-60
2024/03/19 05:11:45;;;;;;;;;;;;;;;22.55;49.48;94250.97;5055219;28;8784;-60
2024/03/19 05:14:16;;;;;;;;;;;;;;;22.60;48.99;94255.78;5070665;28;7313;-60
2024/03/19 05:16:44;;;;;;;;;;;;;;;22.58;49.28;94256.22;5069755;28;7333;-60
2024/03/19 05:19:18;;;;;;;;;;;;;;;22.61;49.38;94263.50;5053161;28;7676;-58
2024/03/19 05:21:53;;;;;;;;;;;;;;;22.55;49.24;94254.47;5055865;28;8766;-58
2024/03/19 05:24:19;;;;;;;;;;;;;;;22.55;50.49;94254.47;5066827;28;7247;-58
2024/03/19 05:26:49;;;;;;;;;;;;;;;22.71;51.23;94266.75;5044287;28;7195;-58
2024/03/19 05:29:52;;;;;;;;;;;;;;;22.80;51.95;94286.47;5056931;28;7068;-58
2024/03/19 05:32:20;;;;;;;;;;;;;;;22.82;51.35;94267.53;5068811;28;9144;-59
2024/03/19 05:34:53;;;;;;;;;;;;;;;22.85;51.27;94268.53;5058940;28;7224;-58
2024/03/19 05:37:33;;;;;;;;;;;;;;;22.92;50.48;94285.25;5054818;28;8007;-61
2024/03/19 05:40:06;;;;;;;;;;;;;;;22.88;49.40;94284.75;5045331;28;7114;-60
2024/03/19 05:42:33;;;;;;;;;;;;;;;22.80;48.76;94291.19;5018086;28;9453;-59
2024/03/19 05:44:58;;;;;;;;;;;;;;;22.68;49.42;94284.94;5043048;28;7144;-58
2024/03/19 05:48:22;;;;;;;;;;;;;;;22.73;49.13;94295.16;5054449;28;7620;-59
2024/03/19 05:51:10;;;;;;;;;;;;;;;22.68;49.71;94295.16;5052010;28;7360;-59
2024/03/19 05:53:46;;;;;;;;;;;;;;;22.68;49.43;94301.41;5048391;28;7271;-59
2024/03/19 05:56:58;;;;;;;;;;;;;;;22.76;50.15;94305.16;5061908;28;7298;-59
2024/03/19 05:59:55;;;;;;;;;;;;;;;22.79;50.36;94309.66;5066566;28;7027;-59
2024/03/19 06:02:33;;;;;;;;;;;;;;;22.76;50.22;94298.91;5069210;28;7035;-65
2024/03/19 06:05:04;;;;;;;;;;;;;;;22.81;50.11;94301.69;5078691;28;7237;-65
2024/03/19 06:07:49;;;;;;;;;;;;;;;22.82;50.67;94303.19;5071163;28;6990;-65
2024/03/19 06:10:20;;;;;;;;;;;;;;;22.81;50.45;94292.72;5058150;28;7224;-62
2024/03/19 06:12:59;;;;;;;;;;;;;;;22.88;50.44;94303.22;5054015;28;7400;-63
2024/03/19 06:15:29;;;;;;;;;;;;;;;22.87;50.61;94307.94;5053587;28;7213;-62
2024/03/19 06:18:03;;;;;;;;;;;;;;;22.86;50.57;94302.97;5063178;28;8952;-64
2024/03/19 06:20:31;;;;;;;;;;;;;;;22.81;48.80;94307.19;5048426;28;7886;-70
2024/03/19 06:23:11;;;;;;;;;;;;;;;22.76;47.79;94310.66;5049544;28;7129;-68
2024/03/19 06:25:47;;;;;;;;;;;;;;;22.71;48.87;94308.63;5053462;28;7230;-70
2024/03/19 06:28:34;;;;;;;;;;;;;;;22.73;48.88;94313.63;5069015;28;7320;-71
2024/03/19 06:31:01;;;;;;;;;;;;;;;22.76;49.05;94320.84;5052307;28;8701;-71
2024/03/19 06:34:03;;;;;;;;;;;;;;;22.78;49.25;94324.59;5043029;28;9121;-70
2024/03/19 06:36:40;;;;;;;;;;;;;;;22.83;48.82;94321.16;5042098;28;8709;-70
2024/03/19 06:39:16;;;;;;;;;;;;;;;22.88;48.95;94323.13;5011076;28;9448;-69
2024/03/19 06:42:02;;;;;;;;;;;;;;;22.93;48.94;94327.13;5014733;28;9085;-69
2024/03/19 06:44:27;;;;;;;;;;;;;;;22.96;48.53;94323.41;5014452;28;9353;-77
2024/03/19 06:46:53;;;;;;;;;;;;;;;23.05;48.85;94325.94;5048337;28;8709;-68
2024/03/19 06:49:24;;;;;;;;;;;;;;;23.12;48.98;94322.69;5015230;28;8627;-61
2024/03/19 06:52:30;;;;;;;;;;;;;;;23.21;48.81;94336.94;5014911;28;9303;-60
2024/03/19 06:55:06;;;;;;;;;;;;;;;23.29;48.70;94334.47;5012062;28;6860;-61
2024/03/19 06:57:35;;;;;;;;;;;;;;;23.36;48.19;94328.50;5024104;28;9145;-61
2024/03/19 07:00:05;;;;;;;;;;;;;;;23.41;48.07;94325.00;5013522;28;9198;-62
2024/03/19 07:02:34;;;;;;;;;;;;;;;23.51;50.88;94326.25;5012099;28;9065;-61
2024/03/19 07:05:01;;;;;;;;;;;;;;;23.54;52.96;94328.03;5012946;28;7725;-61
2024/03/19 07:07:50;;;;;;;;;;;;;;;23.73;55.79;94328.25;5014358;28;8939;-61
2024/03/19 07:10:20;;;;;;;;;;;;;;;23.96;57.03;94316.78;5031033;28;7286;-61
2024/03/19 07:12:48;;;;;;;;;;;;;;;24.18;56.59;94318.78;5048574;28;9086;-61
2024/03/19 07:15:18;;;;;;;;;;;;;;;24.36;56.83;94326.44;5068839;28;9421;-61
2024/03/19 07:17:57;;;;;;;;;;;;;;;24.48;51.42;94327.94;5072564;28;7747;-58
2024/03/19 07:20:24;;;;;;;;;;;;;;;24.54;49.16;94325.91;5068611;28;9113;-58
2024/03/19 07:22:50;;;;;;;;;;;;;;;24.57;48.30;94327.66;5054776;28;9096;-59
2024/03/19 07:25:17;;;;;;;;;;;;;;;24.56;46.74;94319.91;5054344;28;9398;-59
2024/03/19 07:28:09;;;;;;;;;;;;;;;24.61;48.47;94322.63;5055945;28;9103;-59
2024/03/19 07:30:48;;;;;;;;;;;;;;;24.62;47.98;94315.16;5055085;28;8805;-59
2024/03/19 07:33:23;;;;;;;;;;;;;;;24.63;47.93;94316.63;5052600;28;9393;-58
2024/03/19 07:35:49;;;;;;;;;;;;;;;24.65;48.10;94311.38;5044219;28;9224;-59
2024/03/19 07:38:17;;;;;;;;;;;;;;;24.66;47.68;94310.84;5054250;28;9044;-59
2024/03/19 07:40:46;;;;;;;;;;;;;;;24.67;47.83;94306.09;5068708;28;10002;-58
2024/03/19 07:43:14;;;;;;;;;;;;;;;24.69;47.75;94298.84;5055231;28;7014;-58
2024/03/19 07:45:41;;;;;;;;;;;;;;;24.68;47.74;94300.09;5055733;28;9909;-59
2024/03/19 07:48:07;;;;;;;;;;;;;;;24.71;47.07;94304.59;5047565;28;7106;-59
2024/03/19 07:50:34;;;;;;;;;;;;;;;24.72;47.20;94308.09;5055440;28;7634;-59
2024/03/19 07:53:05;;;;;;;;;;;;;;;24.71;47.28;94301.84;5064628;28;9237;-58
2024/03/19 07:55:34;;;;;;;;;;;;;;;24.73;47.36;94303.34;5054445;28;7528;-58
2024/03/19 07:58:02;;;;;;;;;;;;;;;24.75;47.33;94306.38;5070234;28;9375;-59
2024/03/19 08:00:34;;;;;;;;;;;;;;;24.69;46.95;94298.84;5053282;28;7245;-59
2024/03/19 08:03:00;;;;;;;;;;;;;;;24.71;46.37;94307.34;5061317;28;7306;-59
2024/03/19 08:05:26;;;;;;;;;;;;;;;24.69;47.18;94298.09;5067580;28;7560;-58
2024/03/19 08:08:10;;;;;;;;;;;;;;;24.73;47.11;94304.81;5057859;28;9858;-58
2024/03/19 08:10:56;;;;;;;;;;;;;;;24.73;46.66;94301.31;5055186;28;7234;-58
2024/03/19 08:13:33;;;;;;;;;;;;;;;24.72;47.07;94302.59;5054538;28;7204;-58
2024/03/19 08:16:03;;;;;;;;;;;;;;;24.73;46.47;94308.84;5056620;28;7668;-59
2024/03/19 08:18:37;;;;;;;;;;;;;;;24.73;47.04;94315.81;5037193;28;7049;-58
2024/03/19 08:21:15;;;;;;;;;;;;;;;24.67;47.09;94301.34;5045150;28;7046;-59
2024/03/19 08:24:15;;;;;;;;;;;;;;;24.73;46.59;94314.34;5036263;28;7023;-59
2024/03/19 08:26:53;;;;;;;;;;;;;;;24.67;46.66;94300.59;5036191;28;6979;-66
2024/03/19 08:29:28;;;;;;;;;;;;;;;24.72;47.29;94319.09;5044257;28;7187;-66
2024/03/19 08:32:14;;;;;;;;;;;;;;;24.73;46.87;94326.81;5054875;28;7265;-66
2024/03/19 08:34:43;;;;;;;;;;;;;;;24.75;46.82;94322.88;5052897;28;7322;-67
2024/03/19 08:37:17;;;;;;;;;;;;;;;24.75;47.46;94322.88;5053951;28;8725;-66
2024/03/19 08:39:55;;;;;;;;;;;;;;;24.69;46.46;94318.09;5048137;28;7025;-66
2024/03/19 08:43:18;;;;;;;;;;;;;;;24.76;46.42;94325.09;5084524;28;7282;-66
2024/03/19 08:45:44;;;;;;;;;;;;;;;24.73;47.08;94319.84;5038828;28;7288;-66
2024/03/19 08:48:12;;;;;;;;;;;;;;;24.69;46.56;94320.84;5052472;28;7198;-66
2024/03/19 08:50:43;;;;;;;;;;;;;;;24.73;47.30;94324.06;5055123;28;7058;-66
2024/03/19 08:53:17;;;;;;;;;;;;;;;24.69;46.71;94322.84;5057139;28;6947;-66
2024/03/19 08:55:43;;;;;;;;;;;;;;;24.75;46.44;94326.34;5048049;28;7311;-66
2024/03/19 08:58:14;;;;;;;;;;;;;;;24.73;46.93;94326.81;5051504;28;9110;-66
2024/03/19 09:00:43;;;;;;;;;;;;;;;24.69;46.26;94323.59;5052657;28;7048;-66
2024/03/19 09:03:20;;;;;;;;;;;;;;;24.75;46.35;94331.13;5051774;28;7385;-66
2024/03/19 09:06:06;;;;;;;;;;;;;;;24.67;46.91;94320.59;5055204;28;7030;-66
2024/03/19 09:08:47;;;;;;;;;;;;;;;24.75;46.97;94339.38;5054189;28;7337;-66
2024/03/19 09:11:17;;;;;;;;;;;;;;;24.73;47.26;94332.31;5053097;28;7030;-66
2024/03/19 09:13:58;;;;;;;;;;;;;;;24.69;46.64;94331.09;5055552;28;7042;-66
2024/03/19 09:16:36;;;;;;;;;;;;;;;24.69;47.14;94329.09;5053559;28;9633;-66
2024/03/19 09:19:09;;;;;;;;;;;;;;;24.71;46.66;94332.09;5054887;28;10024;-66
2024/03/19 09:21:38;;;;;;;;;;;;;;;24.70;46.49;94343.59;5051053;28;7872;-66
2024/03/19 09:24:06;;;;;;;;;;;;;;;24.75;46.71;94340.09;5052305;28;7049;-66
2024/03/19 09:26:32;;;;;;;;;;;;;;;24.77;46.25;94350.59;5051145;28;9581;-65
2024/03/19 09:29:00;;;;;;;;;;;;;;;24.75;47.01;94348.34;5051202;28;7419;-66
2024/03/19 09:31:26;;;;;;;;;;;;;;;24.72;46.54;94346.59;5052300;28;7035;-66
2024/03/19 09:34:13;;;;;;;;;;;;;;;24.71;46.62;94334.84;5052765;28;7022;-66
2024/03/19 09:36:58;;;;;;;;;;;;;;;24.78;46.09;94354.84;5053789;28;7610;-61
2024/03/19 09:39:25;;;;;;;;;;;;;;;24.78;46.74;94349.34;5052919;28;7414;-61
2024/03/19 09:42:43;;;;;;;;;;;;;;;24.77;46.26;94351.38;5054746;28;7304;-61
2024/03/19 09:45:41;;;;;;;;;;;;;;;24.77;46.51;94350.59;5044076;28;7148;-61
2024/03/19 09:48:08;;;;;;;;;;;;;;;24.76;46.63;94346.34;5052711;28;7257;-61
2024/03/19 09:50:35;;;;;;;;;;;;;;;24.72;47.05;94343.84;5039288;28;6995;-61
2024/03/19 09:53:32;;;;;;;;;;;;;;;24.78;46.01;94343.84;5052486;28;7052;-60
2024/03/19 09:56:13;;;;;;;;;;;;;;;24.73;46.92;94332.31;5030746;28;6971;-61
2024/03/19 09:58:39;;;;;;;;;;;;;;;24.79;46.73;94339.84;5029684;28;7041;-61
2024/03/19 10:01:33;;;;;;;;;;;;;;;24.80;46.02;94344.06;5014768;28;7382;-60
2024/03/19 10:04:19;;;;;;;;;;;;;;;24.77;46.72;94343.13;5031939;28;8268;-60
2024/03/19 10:06:46;;;;;;;;;;;;;;;24.81;46.88;94337.34;5037061;28;8236;-61
2024/03/19 10:09:34;;;;;;;;;;;;;;;24.81;46.49;94343.59;5034883;28;7233;-61
2024/03/19 10:12:09;;;;;;;;;;;;;;;24.79;46.83;94334.34;5031260;28;7294;-61
2024/03/19 10:14:35;;;;;;;;;;;;;;;24.79;46.88;94337.84;5012007;28;7010;-60
2024/03/19 10:17:04;;;;;;;;;;;;;;;24.87;46.20;94340.81;5010960;28;7124;-61
2024/03/19 10:19:49;;;;;;;;;;;;;;;24.86;46.49;94333.81;5031448;28;7055;-60
2024/03/19 10:22:34;;;;;;;;;;;;;;;24.83;46.45;94327.31;5030635;28;7058;-60
2024/03/19 10:25:29;;;;;;;;;;;;;;;24.86;46.77;94336.56;5015367;28;7412;-61
2024/03/19 10:28:39;;;;;;;;;;;;;;;24.89;46.77;94341.78;5014950;28;9776;-61
2024/03/19 10:31:10;;;;;;;;;;;;;;;24.89;46.50;94332.78;5011005;28;7075;-61
2024/03/19 10:33:43;;;;;;;;;;;;;;;24.90;46.04;94334.28;5035290;28;7193;-61
2024/03/19 10:36:25;;;;;;;;;;;;;;;24.86;46.96;94328.31;5049177;28;7326;-60
2024/03/19 10:38:54;;;;;;;;;;;;;;;24.90;46.20;94324.06;5051883;28;7478;-61
2024/03/19 10:41:32;;;;;;;;;;;;;;;24.89;46.59;94332.78;5030427;28;7447;-61
2024/03/19 10:44:00;;;;;;;;;;;;;;;24.83;46.24;94327.31;5034815;28;7047;-60
2024/03/19 10:46:33;;;;;;;;;;;;;;;24.90;46.60;94339.81;5051251;28;7032;-61
2024/03/19 10:48:59;;;;;;;;;;;;;;;24.90;46.40;94334.28;5051812;28;7147;-61
2024/03/19 10:51:26;;;;;;;;;;;;;;;24.85;45.97;94333.06;5037133;28;7114;-60
2024/03/19 10:54:06;;;;;;;;;;;;;;;24.84;46.62;94331.56;5054719;28;9098;-61
2024/03/19 10:56:35;;;;;;;;;;;;;;;24.93;45.86;94347.03;5038713;28;7073;-61
2024/03/19 10:59:21;;;;;;;;;;;;;;;24.89;46.43;94341.03;5038463;28;7056;-60
2024/03/19 11:01:59;;;;;;;;;;;;;;;24.93;46.65;94347.03;5049642;28;6996;-61
2024/03/19 11:04:29;;;;;;;;;;;;;;;24.92;46.49;94340.03;5044098;28;9496;-61
2024/03/19 11:07:40;;;;;;;;;;;;;;;24.93;46.11;94333.25;5053944;28;7224;-61
2024/03/19 11:10:40;;;;;;;;;;;;;;;24.93;46.87;94333.25;5055799;28;7273;-61
2024/03/19 11:13:14;;;;;;;;;;;;;;;24.90;45.84;94329.56;5030936;28;7379;-64
2024/03/19 11:15:48;;;;;;;;;;;;;;;24.85;46.15;94330.31;5032678;28;7055;-61
2024/03/19 11:18:14;;;;;;;;;;;;;;;24.87;47.20;94332.56;5047320;28;7229;-61
2024/03/19 11:20:49;;;;;;;;;;;;;;;24.86;47.35;94328.31;5031861;28;7320;-62
2024/03/19 11:23:25;;;;;;;;;;;;;;;24.90;47.23;94345.31;5031835;28;7293;-62
2024/03/19 11:25:56;;;;;;;;;;;;;;;24.95;47.68;94344.50;5000347;28;7026;-62
2024/03/19 11:28:38;;;;;;;;;;;;;;;24.92;48.06;94329.78;5032299;28;7213;-64
2024/03/19 11:31:05;;;;;;;;;;;;;;;24.99;48.30;94342.25;5032220;28;7222;-64
2024/03/19 11:33:41;;;;;;;;;;;;;;;24.98;47.41;94332.50;5037053;28;7109;-64
2024/03/19 11:36:07;;;;;;;;;;;;;;;24.99;47.16;94340.25;5037919;28;9636;-65
2024/03/19 11:39:07;;;;;;;;;;;;;;;25.00;46.41;94338.25;5039400;28;9276;-64
2024/03/19 11:41:55;;;;;;;;;;;;;;;25.02;47.21;94342.00;5036042;28;9468;-64
2024/03/19 11:44:22;;;;;;;;;;;;;;;25.03;46.92;94342.75;5022276;28;9415;-64
2024/03/19 11:46:51;;;;;;;;;;;;;;;25.04;46.86;94344.22;5033768;28;9834;-64
2024/03/19 11:49:26;;;;;;;;;;;;;;;25.05;47.08;94342.97;5070992;28;9262;-64
2024/03/19 11:52:01;;;;;;;;;;;;;;;25.07;47.56;94337.72;5062177;28;8638;-64
2024/03/19 11:54:37;;;;;;;;;;;;;;;25.07;47.14;94338.47;5071492;28;8737;-64
2024/03/19 11:57:13;;;;;;;;;;;;;;;25.06;46.85;94342.47;5055387;28;9128;-67
2024/03/19 11:59:59;;;;;;;;;;;;;;;25.13;47.49;94341.19;5065633;28;8739;-66
2024/03/19 12:02:25;;;;;;;;;;;;;;;25.15;47.35;94341.41;5057653;28;9059;-66
2024/03/19 12:04:56;;;;;;;;;;;;;;;25.13;46.83;94335.66;5061808;28;8794;-65
2024/03/19 12:07:29;;;;;;;;;;;;;;;25.16;47.61;94335.41;5052602;28;8813;-65
2024/03/19 12:09:55;;;;;;;;;;;;;;;25.16;46.87;94329.16;5053605;28;7441;-65
2024/03/19 12:12:29;;;;;;;;;;;;;;;25.19;46.69;94325.38;5058761;28;8820;-65
2024/03/19 12:14:59;;;;;;;;;;;;;;;25.17;46.99;94327.88;5076071;28;9041;-65
2024/03/19 12:17:26;;;;;;;;;;;;;;;25.18;47.13;94329.41;5056712;28;8698;-65
2024/03/19 12:19:52;;;;;;;;;;;;;;;25.21;47.13;94325.59;5059835;28;8760;-65
2024/03/19 12:22:21;;;;;;;;;;;;;;;25.19;47.32;94325.38;5054365;28;9321;-66
2024/03/19 12:24:54;;;;;;;;;;;;;;;25.19;46.61;94323.38;5059178;28;7229;-65
2024/03/19 12:27:22;;;;;;;;;;;;;;;25.22;47.19;94329.88;5068986;28;9118;-65
2024/03/19 12:29:49;;;;;;;;;;;;;;;25.23;46.93;94325.84;5065596;28;7091;-65
2024/03/19 12:32:25;;;;;;;;;;;;;;;25.25;47.05;94323.34;5052794;28;8770;-65
2024/03/19 12:35:05;;;;;;;;;;;;;;;25.25;47.45;94323.34;5067518;28;7531;-65
2024/03/19 12:37:33;;;;;;;;;;;;;;;25.26;47.41;94330.34;5071341;28;9144;-65
2024/03/19 12:40:00;;;;;;;;;;;;;;;25.27;47.27;94329.09;5051443;28;9717;-65
2024/03/19 12:42:26;;;;;;;;;;;;;;;25.26;46.65;94327.59;5074289;28;8628;-65
2024/03/19 12:44:52;;;;;;;;;;;;;;;25.25;47.52;94326.84;5068707;28;9353;-65
2024/03/19 12:47:20;;;;;;;;;;;;;;;25.24;46.89;94324.59;5057135;28;9059;-65
2024/03/19 12:49:46;;;;;;;;;;;;;;;25.21;47.72;94328.34;5055304;28;8209;-66
2024/03/19 12:52:12;;;;;;;;;;;;;;;25.22;46.94;94321.59;5056171;28;8644;-66
2024/03/19 12:54:41;;;;;;;;;;;;;;;25.20;47.54;94324.13;5061359;28;8144;-66
2024/03/19 12:57:09;;;;;;;;;;;;;;;25.19;47.25;94331.63;5071771;28;9128;-66
2024/03/19 12:59:37;;;;;;;;;;;;;;;25.17;47.19;94319.63;5097206;28;9062;-66
2024/03/19 13:02:08;;;;;;;;;;;;;;;25.12;47.47;94325.94;5056368;28;8753;-66
2024/03/19 13:04:35;;;;;;;;;;;;;;;25.03;47.69;94318.72;5072159;28;9583;-66
2024/03/19 13:07:03;;;;;;;;;;;;;;;24.98;47.94;94330.50;5056684;28;9432;-62
2024/03/19 13:09:30;;;;;;;;;;;;;;;24.91;47.51;94331.03;5063779;28;8960;-61
2024/03/19 13:12:04;;;;;;;;;;;;;;;24.81;48.58;94327.09;5056653;28;7241;-63
2024/03/19 13:14:30;;;;;;;;;;;;;;;24.71;48.27;94326.59;5063386;28;8625;-63
2024/03/19 13:16:56;;;;;;;;;;;;;;;24.65;48.81;94325.13;5053438;28;9079;-64
2024/03/19 13:19:26;;;;;;;;;;;;;;;24.53;48.43;94316.16;5062567;28;9486;-63
2024/03/19 13:21:52;;;;;;;;;;;;;;;24.46;48.85;94315.94;5051477;28;8782;-63
2024/03/19 13:24:18;;;;;;;;;;;;;;;24.43;48.95;94319.69;5068781;28;9166;-63
2024/03/19 13:26:47;;;;;;;;;;;;;;;24.37;49.53;94321.72;5059663;28;9639;-63
2024/03/19 13:29:17;;;;;;;;;;;;;;;24.33;49.73;94326.72;5060671;28;7262;-63
2024/03/19 13:31:49;;;;;;;;;;;;;;;24.28;49.37;94330.97;5053803;28;8691;-63
2024/03/19 13:34:20;;;;;;;;;;;;;;;24.26;49.48;94321.72;5073123;28;9194;-63
2024/03/19 13:36:47;;;;;;;;;;;;;;;24.21;50.38;94320.50;5071322;28;9068;-63
2024/03/19 13:39:19;;;;;;;;;;;;;;;24.20;50.00;94324.50;5056870;28;9040;-63
2024/03/19 13:41:46;;;;;;;;;;;;;;;24.20;49.46;94318.25;5054455;28;8830;-63
2024/03/19 13:44:23;;;;;;;;;;;;;;;24.19;50.17;94325.75;5053750;28;8713;-63
2024/03/19 13:46:49;;;;;;;;;;;;;;;24.16;49.72;94318.53;5056437;28;9631;-63
2024/03/19 13:49:28;;;;;;;;;;;;;;;24.17;49.62;94324.75;5056781;28;9825;-62